sensor_id;sensor_type;location;lat;lon;timestamp;temperature;humidity
11925;DHT22;6022;48.768;18.608;2024-02-15T00:01:35;5.40;99.90
11925;DHT22;6022;48.768;18.608;2024-02-15T00:04:04;5.30;99.90
11925;DHT22;6022;48.768;18.608;2024-02-15T00:06:33;5.10;99.90
11925;DHT22;6022;48.768;18.608;2024-02-15T00:09:02;5.10;99.90
11925;DHT22;6022;48.768;18.608;2024-02-15T00:11:30;5.50;99.90
11925;DHT22;6022;48.768;18.608;2024-02-15T00:14:01;5.40;99.90
11925;DHT22;6022;48.768;18.608;2024-02-15T00:16:29;5.50;99.90
11925;DHT22;6022;48.768;18.608;2024-02-15T00:18:58;5.40;99.90
11925;DHT22;6022;48.768;18.608;2024-02-15T00:21:27;5.40;99.90
11925;DHT22;6022;48.768;18.608;2024-02-15T00:23:55;5.40;99.90
11925;DHT22;6022;48.768;18.608;2024-02-15T00:26:24;5.40;99.90
11925;DHT22;6022;48.768;18.608;2024-02-15T00:28:53;5.40;99.90
11925;DHT22;6022;48.768;18.608;2024-02-15T00:31:21;5.70;99.90
11925;DHT22;6022;48.768;18.608;2024-02-15T00:33:50;5.50;99.90
11925;DHT22;6022;48.768;18.608;2024-02-15T00:36:19;5.60;99.90
11925;DHT22;6022;48.768;18.608;2024-02-15T00:38:47;5.40;99.90
11925;DHT22;6022;48.768;18.608;2024-02-15T00:41:15;5.50;99.90
11925;DHT22;6022;48.768;18.608;2024-02-15T00:43:42;5.50;99.90
11925;DHT22;6022;48.768;18.608;2024-02-15T00:46:11;5.40;99.90
11925;DHT22;6022;48.768;18.608;2024-02-15T00:48:39;5.30;99.90
11925;DHT22;6022;48.768;18.608;2024-02-15T00:51:08;5.50;99.90
11925;DHT22;6022;48.768;18.608;2024-02-15T00:53:36;5.20;99.90
11925;DHT22;6022;48.768;18.608;2024-02-15T00:56:05;5.40;99.90
11925;DHT22;6022;48.768;18.608;2024-02-15T00:58:34;5.60;99.90
11925;DHT22;6022;48.768;18.608;2024-02-15T01:01:03;5.40;99.90
11925;DHT22;6022;48.768;18.608;2024-02-15T01:03:31;5.50;99.90
11925;DHT22;6022;48.768;18.608;2024-02-15T01:05:59;5.30;99.90
11925;DHT22;6022;48.768;18.608;2024-02-15T01:08:28;5.40;99.90
11925;DHT22;6022;48.768;18.608;2024-02-15T01:10:56;5.40;99.90
11925;DHT22;6022;48.768;18.608;2024-02-15T01:13:24;5.30;99.90
11925;DHT22;6022;48.768;18.608;2024-02-15T01:15:53;5.50;99.90
11925;DHT22;6022;48.768;18.608;2024-02-15T01:18:21;5.10;99.90
11925;DHT22;6022;48.768;18.608;2024-02-15T01:20:49;5.10;99.90
11925;DHT22;6022;48.768;18.608;2024-02-15T01:23:18;5.30;99.90
11925;DHT22;6022;48.768;18.608;2024-02-15T01:25:47;5.20;99.90
11925;DHT22;6022;48.768;18.608;2024-02-15T01:28:15;5.20;99.90
11925;DHT22;6022;48.768;18.608;2024-02-15T01:30:43;5.20;99.90
11925;DHT22;6022;48.768;18.608;2024-02-15T01:33:13;5.30;99.90
11925;DHT22;6022;48.768;18.608;2024-02-15T01:35:41;5.40;99.90
11925;DHT22;6022;48.768;18.608;2024-02-15T01:38:09;5.50;99.90
11925;DHT22;6022;48.768;18.608;2024-02-15T01:40:38;5.40;99.90
11925;DHT22;6022;48.768;18.608;2024-02-15T01:43:08;5.40;99.90
11925;DHT22;6022;48.768;18.608;2024-02-15T01:45:36;5.30;99.90
11925;DHT22;6022;48.768;18.608;2024-02-15T01:48:05;5.30;99.90
11925;DHT22;6022;48.768;18.608;2024-02-15T01:50:34;5.20;99.90
11925;DHT22;6022;48.768;18.608;2024-02-15T01:53:05;5.30;99.90
11925;DHT22;6022;48.768;18.608;2024-02-15T01:55:35;5.40;99.90
11925;DHT22;6022;48.768;18.608;2024-02-15T01:58:04;5.30;99.90
11925;DHT22;6022;48.768;18.608;2024-02-15T02:00:32;5.30;99.90
11925;DHT22;6022;48.768;18.608;2024-02-15T02:03:02;5.60;99.90
11925;DHT22;6022;48.768;18.608;2024-02-15T02:05:33;5.50;99.90
11925;DHT22;6022;48.768;18.608;2024-02-15T02:08:01;5.30;99.90
11925;DHT22;6022;48.768;18.608;2024-02-15T02:10:31;5.30;99.90
11925;DHT22;6022;48.768;18.608;2024-02-15T02:13:00;5.50;99.90
11925;DHT22;6022;48.768;18.608;2024-02-15T02:15:32;5.40;99.90
11925;DHT22;6022;48.768;18.608;2024-02-15T02:18:04;5.00;99.90
11925;DHT22;6022;48.768;18.608;2024-02-15T02:20:34;5.30;99.90
11925;DHT22;6022;48.768;18.608;2024-02-15T02:23:16;5.20;99.90
11925;DHT22;6022;48.768;18.608;2024-02-15T02:25:48;5.40;99.90
11925;DHT22;6022;48.768;18.608;2024-02-15T02:28:16;5.50;99.90
11925;DHT22;6022;48.768;18.608;2024-02-15T02:30:44;5.30;99.90
11925;DHT22;6022;48.768;18.608;2024-02-15T02:33:13;5.40;99.90
11925;DHT22;6022;48.768;18.608;2024-02-15T02:35:50;5.30;99.90
11925;DHT22;6022;48.768;18.608;2024-02-15T02:38:18;5.10;99.90
11925;DHT22;6022;48.768;18.608;2024-02-15T02:40:47;5.50;99.90
11925;DHT22;6022;48.768;18.608;2024-02-15T02:43:15;5.40;99.90
11925;DHT22;6022;48.768;18.608;2024-02-15T02:45:43;5.40;99.90
11925;DHT22;6022;48.768;18.608;2024-02-15T02:48:12;5.50;99.90
11925;DHT22;6022;48.768;18.608;2024-02-15T02:50:41;5.40;99.90
11925;DHT22;6022;48.768;18.608;2024-02-15T02:53:10;5.50;99.90
11925;DHT22;6022;48.768;18.608;2024-02-15T02:55:38;5.50;99.90
11925;DHT22;6022;48.768;18.608;2024-02-15T02:58:09;5.40;99.90
11925;DHT22;6022;48.768;18.608;2024-02-15T03:00:45;5.40;99.90
11925;DHT22;6022;48.768;18.608;2024-02-15T03:03:15;5.40;99.90
11925;DHT22;6022;48.768;18.608;2024-02-15T03:05:44;5.40;99.90
11925;DHT22;6022;48.768;18.608;2024-02-15T03:08:12;5.50;99.90
11925;DHT22;6022;48.768;18.608;2024-02-15T03:10:40;5.40;99.90
11925;DHT22;6022;48.768;18.608;2024-02-15T03:13:09;5.40;99.90
11925;DHT22;6022;48.768;18.608;2024-02-15T03:15:39;5.40;99.90
11925;DHT22;6022;48.768;18.608;2024-02-15T03:18:09;5.50;99.90
11925;DHT22;6022;48.768;18.608;2024-02-15T03:20:37;5.60;99.90
11925;DHT22;6022;48.768;18.608;2024-02-15T03:23:06;5.40;99.90
11925;DHT22;6022;48.768;18.608;2024-02-15T03:25:35;5.20;99.90
11925;DHT22;6022;48.768;18.608;2024-02-15T03:28:04;5.40;99.90
11925;DHT22;6022;48.768;18.608;2024-02-15T03:30:34;5.60;99.90
11925;DHT22;6022;48.768;18.608;2024-02-15T03:33:02;5.40;99.90
11925;DHT22;6022;48.768;18.608;2024-02-15T03:35:34;5.40;99.90
11925;DHT22;6022;48.768;18.608;2024-02-15T03:38:03;5.40;99.90
11925;DHT22;6022;48.768;18.608;2024-02-15T03:40:34;5.60;99.90
11925;DHT22;6022;48.768;18.608;2024-02-15T03:43:02;5.50;99.90
11925;DHT22;6022;48.768;18.608;2024-02-15T03:45:34;5.30;99.90
11925;DHT22;6022;48.768;18.608;2024-02-15T03:48:03;5.50;99.90
11925;DHT22;6022;48.768;18.608;2024-02-15T03:50:34;5.50;99.90
11925;DHT22;6022;48.768;18.608;2024-02-15T03:53:03;5.10;99.90
11925;DHT22;6022;48.768;18.608;2024-02-15T03:55:35;5.50;99.90
11925;DHT22;6022;48.768;18.608;2024-02-15T03:58:04;5.50;99.90
11925;DHT22;6022;48.768;18.608;2024-02-15T04:00:33;5.30;99.90
11925;DHT22;6022;48.768;18.608;2024-02-15T04:03:01;5.40;99.90
11925;DHT22;6022;48.768;18.608;2024-02-15T04:05:32;5.30;99.90
11925;DHT22;6022;48.768;18.608;2024-02-15T04:08:01;5.30;99.90
11925;DHT22;6022;48.768;18.608;2024-02-15T04:10:30;5.30;99.90
11925;DHT22;6022;48.768;18.608;2024-02-15T04:12:59;5.50;99.90
11925;DHT22;6022;48.768;18.608;2024-02-15T04:15:28;5.30;99.90
11925;DHT22;6022;48.768;18.608;2024-02-15T04:17:56;5.30;99.90
11925;DHT22;6022;48.768;18.608;2024-02-15T04:20:26;5.30;99.90
11925;DHT22;6022;48.768;18.608;2024-02-15T04:22:57;5.60;99.90
11925;DHT22;6022;48.768;18.608;2024-02-15T04:25:33;5.10;99.90
11925;DHT22;6022;48.768;18.608;2024-02-15T04:28:01;5.60;99.90
11925;DHT22;6022;48.768;18.608;2024-02-15T04:30:31;5.30;99.90
11925;DHT22;6022;48.768;18.608;2024-02-15T04:33:01;5.40;99.90
11925;DHT22;6022;48.768;18.608;2024-02-15T04:35:30;5.40;99.90
11925;DHT22;6022;48.768;18.608;2024-02-15T04:37:59;5.00;99.90
11925;DHT22;6022;48.768;18.608;2024-02-15T04:40:31;5.30;99.90
11925;DHT22;6022;48.768;18.608;2024-02-15T04:43:00;5.30;99.90
11925;DHT22;6022;48.768;18.608;2024-02-15T04:45:31;5.50;99.90
11925;DHT22;6022;48.768;18.608;2024-02-15T04:48:00;5.20;99.90
11925;DHT22;6022;48.768;18.608;2024-02-15T04:50:30;5.30;99.90
11925;DHT22;6022;48.768;18.608;2024-02-15T04:52:58;5.10;99.90
11925;DHT22;6022;48.768;18.608;2024-02-15T04:55:27;5.10;99.90
11925;DHT22;6022;48.768;18.608;2024-02-15T04:58:07;5.30;99.90
11925;DHT22;6022;48.768;18.608;2024-02-15T05:00:38;5.30;99.90
11925;DHT22;6022;48.768;18.608;2024-02-15T05:03:06;5.30;99.90
11925;DHT22;6022;48.768;18.608;2024-02-15T05:05:35;5.30;99.90
11925;DHT22;6022;48.768;18.608;2024-02-15T05:08:06;5.50;99.90
11925;DHT22;6022;48.768;18.608;2024-02-15T05:10:37;5.30;99.90
11925;DHT22;6022;48.768;18.608;2024-02-15T05:13:05;5.50;99.90
11925;DHT22;6022;48.768;18.608;2024-02-15T05:15:35;5.50;99.90
11925;DHT22;6022;48.768;18.608;2024-02-15T05:18:04;5.20;99.90
11925;DHT22;6022;48.768;18.608;2024-02-15T05:20:36;5.30;99.90
11925;DHT22;6022;48.768;18.608;2024-02-15T05:23:05;5.30;99.90
11925;DHT22;6022;48.768;18.608;2024-02-15T05:25:34;5.30;99.90
11925;DHT22;6022;48.768;18.608;2024-02-15T05:28:06;5.60;99.90
11925;DHT22;6022;48.768;18.608;2024-02-15T05:30:36;5.40;99.90
11925;DHT22;6022;48.768;18.608;2024-02-15T05:33:07;5.70;99.90
11925;DHT22;6022;48.768;18.608;2024-02-15T05:35:38;5.60;99.90
11925;DHT22;6022;48.768;18.608;2024-02-15T05:38:07;5.40;99.90
11925;DHT22;6022;48.768;18.608;2024-02-15T05:40:36;5.40;99.90
11925;DHT22;6022;48.768;18.608;2024-02-15T05:43:04;5.60;99.90
11925;DHT22;6022;48.768;18.608;2024-02-15T05:45:34;5.40;99.90
11925;DHT22;6022;48.768;18.608;2024-02-15T05:48:05;5.40;99.90
11925;DHT22;6022;48.768;18.608;2024-02-15T05:50:37;5.40;99.90
11925;DHT22;6022;48.768;18.608;2024-02-15T05:53:05;5.00;99.90
11925;DHT22;6022;48.768;18.608;2024-02-15T05:55:35;5.70;99.90
11925;DHT22;6022;48.768;18.608;2024-02-15T05:58:05;5.60;99.90
11925;DHT22;6022;48.768;18.608;2024-02-15T06:00:33;5.60;99.90
11925;DHT22;6022;48.768;18.608;2024-02-15T06:03:01;5.40;99.90
11925;DHT22;6022;48.768;18.608;2024-02-15T06:05:32;5.40;99.90
11925;DHT22;6022;48.768;18.608;2024-02-15T06:08:01;5.40;99.90
11925;DHT22;6022;48.768;18.608;2024-02-15T06:10:28;5.30;99.90
11925;DHT22;6022;48.768;18.608;2024-02-15T06:12:58;5.40;99.90
11925;DHT22;6022;48.768;18.608;2024-02-15T06:15:26;5.60;99.90
11925;DHT22;6022;48.768;18.608;2024-02-15T06:17:54;5.20;99.90
11925;DHT22;6022;48.768;18.608;2024-02-15T06:20:23;5.40;99.90
11925;DHT22;6022;48.768;18.608;2024-02-15T06:22:51;5.80;99.90
11925;DHT22;6022;48.768;18.608;2024-02-15T06:25:19;5.50;99.90
11925;DHT22;6022;48.768;18.608;2024-02-15T06:27:49;5.50;99.90
11925;DHT22;6022;48.768;18.608;2024-02-15T06:30:25;5.20;99.90
11925;DHT22;6022;48.768;18.608;2024-02-15T06:33:12;5.50;99.90
11925;DHT22;6022;48.768;18.608;2024-02-15T06:36:04;5.70;99.90
11925;DHT22;6022;48.768;18.608;2024-02-15T06:38:52;5.50;99.90
11925;DHT22;6022;48.768;18.608;2024-02-15T06:45:04;5.50;99.90
11925;DHT22;6022;48.768;18.608;2024-02-15T06:47:49;5.60;99.90
11925;DHT22;6022;48.768;18.608;2024-02-15T06:50:32;5.60;99.90
11925;DHT22;6022;48.768;18.608;2024-02-15T06:53:00;5.60;99.90
11925;DHT22;6022;48.768;18.608;2024-02-15T06:55:28;5.60;99.90
11925;DHT22;6022;48.768;18.608;2024-02-15T06:57:56;5.80;99.90
11925;DHT22;6022;48.768;18.608;2024-02-15T07:00:24;5.50;99.90
11925;DHT22;6022;48.768;18.608;2024-02-15T07:02:52;5.70;99.90
11925;DHT22;6022;48.768;18.608;2024-02-15T07:05:21;5.80;99.90
11925;DHT22;6022;48.768;18.608;2024-02-15T07:08:00;5.80;99.90
11925;DHT22;6022;48.768;18.608;2024-02-15T07:10:29;5.80;99.90
11925;DHT22;6022;48.768;18.608;2024-02-15T07:12:58;5.70;99.90
11925;DHT22;6022;48.768;18.608;2024-02-15T07:15:26;5.70;99.90
11925;DHT22;6022;48.768;18.608;2024-02-15T07:17:54;5.70;99.90
11925;DHT22;6022;48.768;18.608;2024-02-15T07:20:23;6.00;99.90
11925;DHT22;6022;48.768;18.608;2024-02-15T07:22:53;5.60;99.90
11925;DHT22;6022;48.768;18.608;2024-02-15T07:25:21;5.70;99.90
11925;DHT22;6022;48.768;18.608;2024-02-15T07:27:49;5.70;99.90
11925;DHT22;6022;48.768;18.608;2024-02-15T07:30:18;5.80;99.90
11925;DHT22;6022;48.768;18.608;2024-02-15T07:32:49;5.80;99.90
11925;DHT22;6022;48.768;18.608;2024-02-15T07:35:18;6.00;99.90
11925;DHT22;6022;48.768;18.608;2024-02-15T07:37:53;5.90;99.90
11925;DHT22;6022;48.768;18.608;2024-02-15T07:40:28;6.10;99.90
11925;DHT22;6022;48.768;18.608;2024-02-15T07:43:03;6.30;99.90
11925;DHT22;6022;48.768;18.608;2024-02-15T07:45:34;6.20;99.90
11925;DHT22;6022;48.768;18.608;2024-02-15T07:48:04;6.00;99.90
11925;DHT22;6022;48.768;18.608;2024-02-15T07:50:33;6.00;99.90
11925;DHT22;6022;48.768;18.608;2024-02-15T07:53:02;6.00;99.90
11925;DHT22;6022;48.768;18.608;2024-02-15T07:55:37;6.10;99.90
11925;DHT22;6022;48.768;18.608;2024-02-15T07:58:07;6.40;99.90
11925;DHT22;6022;48.768;18.608;2024-02-15T08:00:35;6.20;99.90
11925;DHT22;6022;48.768;18.608;2024-02-15T08:03:06;6.50;99.90
11925;DHT22;6022;48.768;18.608;2024-02-15T08:05:35;6.20;99.90
11925;DHT22;6022;48.768;18.608;2024-02-15T08:08:06;6.10;99.90
11925;DHT22;6022;48.768;18.608;2024-02-15T08:10:34;6.30;99.90
11925;DHT22;6022;48.768;18.608;2024-02-15T08:13:02;6.40;99.90
11925;DHT22;6022;48.768;18.608;2024-02-15T08:15:31;6.70;99.90
11925;DHT22;6022;48.768;18.608;2024-02-15T08:18:00;6.70;99.90
11925;DHT22;6022;48.768;18.608;2024-02-15T08:20:33;6.50;99.90
11925;DHT22;6022;48.768;18.608;2024-02-15T08:23:02;6.50;99.90
11925;DHT22;6022;48.768;18.608;2024-02-15T08:25:31;6.70;99.90
11925;DHT22;6022;48.768;18.608;2024-02-15T08:28:00;6.80;99.90
11925;DHT22;6022;48.768;18.608;2024-02-15T08:30:34;6.70;99.90
11925;DHT22;6022;48.768;18.608;2024-02-15T08:33:05;7.10;99.90
11925;DHT22;6022;48.768;18.608;2024-02-15T08:35:33;7.00;99.90
11925;DHT22;6022;48.768;18.608;2024-02-15T08:38:02;7.00;99.90
11925;DHT22;6022;48.768;18.608;2024-02-15T08:40:33;7.10;99.90
11925;DHT22;6022;48.768;18.608;2024-02-15T08:43:02;7.30;99.90
11925;DHT22;6022;48.768;18.608;2024-02-15T08:45:30;6.90;99.90
11925;DHT22;6022;48.768;18.608;2024-02-15T08:47:58;7.20;99.90
11925;DHT22;6022;48.768;18.608;2024-02-15T08:50:26;7.40;99.90
11925;DHT22;6022;48.768;18.608;2024-02-15T08:52:58;7.40;99.90
11925;DHT22;6022;48.768;18.608;2024-02-15T08:55:27;7.30;99.90
11925;DHT22;6022;48.768;18.608;2024-02-15T08:57:55;7.50;99.90
11925;DHT22;6022;48.768;18.608;2024-02-15T09:00:22;7.60;99.90
11925;DHT22;6022;48.768;18.608;2024-02-15T09:02:51;7.70;99.90
11925;DHT22;6022;48.768;18.608;2024-02-15T09:05:20;8.00;99.90
11925;DHT22;6022;48.768;18.608;2024-02-15T09:07:49;7.80;99.90
11925;DHT22;6022;48.768;18.608;2024-02-15T09:10:20;7.80;99.90
11925;DHT22;6022;48.768;18.608;2024-02-15T09:12:51;7.90;99.90
11925;DHT22;6022;48.768;18.608;2024-02-15T09:15:22;7.80;99.90
11925;DHT22;6022;48.768;18.608;2024-02-15T09:17:50;8.00;99.90
11925;DHT22;6022;48.768;18.608;2024-02-15T09:20:22;8.00;99.90
11925;DHT22;6022;48.768;18.608;2024-02-15T09:22:53;8.20;99.90
11925;DHT22;6022;48.768;18.608;2024-02-15T09:25:22;8.20;99.90
11925;DHT22;6022;48.768;18.608;2024-02-15T09:27:53;8.40;99.90
11925;DHT22;6022;48.768;18.608;2024-02-15T09:30:21;8.50;99.90
11925;DHT22;6022;48.768;18.608;2024-02-15T09:32:55;8.80;99.90
11925;DHT22;6022;48.768;18.608;2024-02-15T09:35:31;8.90;99.90
11925;DHT22;6022;48.768;18.608;2024-02-15T09:37:59;8.90;99.90
11925;DHT22;6022;48.768;18.608;2024-02-15T09:40:31;8.80;99.90
11925;DHT22;6022;48.768;18.608;2024-02-15T09:42:59;8.60;99.90
11925;DHT22;6022;48.768;18.608;2024-02-15T09:45:30;8.90;99.90
11925;DHT22;6022;48.768;18.608;2024-02-15T09:48:05;8.80;99.90
11925;DHT22;6022;48.768;18.608;2024-02-15T09:50:35;8.80;99.90
11925;DHT22;6022;48.768;18.608;2024-02-15T09:53:10;8.70;99.90
11925;DHT22;6022;48.768;18.608;2024-02-15T09:55:40;9.00;99.90
11925;DHT22;6022;48.768;18.608;2024-02-15T09:58:08;9.10;99.90
11925;DHT22;6022;48.768;18.608;2024-02-15T10:00:36;8.80;99.90
11925;DHT22;6022;48.768;18.608;2024-02-15T10:03:09;8.80;99.90
11925;DHT22;6022;48.768;18.608;2024-02-15T10:05:39;8.80;99.90
11925;DHT22;6022;48.768;18.608;2024-02-15T10:08:07;9.00;99.90
11925;DHT22;6022;48.768;18.608;2024-02-15T10:10:38;8.60;99.90
11925;DHT22;6022;48.768;18.608;2024-02-15T10:13:06;8.80;99.90
11925;DHT22;6022;48.768;18.608;2024-02-15T10:15:40;8.60;99.90
11925;DHT22;6022;48.768;18.608;2024-02-15T10:18:09;8.80;99.90
11925;DHT22;6022;48.768;18.608;2024-02-15T10:20:41;8.80;99.90
11925;DHT22;6022;48.768;18.608;2024-02-15T10:23:17;9.30;99.90
11925;DHT22;6022;48.768;18.608;2024-02-15T10:25:46;9.20;99.90
11925;DHT22;6022;48.768;18.608;2024-02-15T10:28:20;9.20;99.90
11925;DHT22;6022;48.768;18.608;2024-02-15T10:30:54;9.30;99.90
11925;DHT22;6022;48.768;18.608;2024-02-15T10:33:27;9.30;99.90
11925;DHT22;6022;48.768;18.608;2024-02-15T10:36:09;9.40;99.90
11925;DHT22;6022;48.768;18.608;2024-02-15T10:38:41;9.50;99.90
11925;DHT22;6022;48.768;18.608;2024-02-15T10:41:09;9.50;99.90
11925;DHT22;6022;48.768;18.608;2024-02-15T10:43:39;9.50;99.90
11925;DHT22;6022;48.768;18.608;2024-02-15T10:46:13;9.50;99.90
11925;DHT22;6022;48.768;18.608;2024-02-15T10:48:42;9.50;99.90
11925;DHT22;6022;48.768;18.608;2024-02-15T10:51:13;9.60;99.90
11925;DHT22;6022;48.768;18.608;2024-02-15T10:53:47;9.50;99.90
11925;DHT22;6022;48.768;18.608;2024-02-15T10:56:27;9.50;99.90
11925;DHT22;6022;48.768;18.608;2024-02-15T10:59:17;9.70;99.90
11925;DHT22;6022;48.768;18.608;2024-02-15T11:01:51;9.60;99.90
11925;DHT22;6022;48.768;18.608;2024-02-15T11:04:27;9.60;99.90
11925;DHT22;6022;48.768;18.608;2024-02-15T11:07:00;9.60;99.90
11925;DHT22;6022;48.768;18.608;2024-02-15T11:09:30;9.70;99.90
11925;DHT22;6022;48.768;18.608;2024-02-15T11:11:59;9.90;99.90
11925;DHT22;6022;48.768;18.608;2024-02-15T11:14:28;9.90;99.90
11925;DHT22;6022;48.768;18.608;2024-02-15T11:16:58;10.00;99.90
11925;DHT22;6022;48.768;18.608;2024-02-15T11:22:10;10.20;99.90
11925;DHT22;6022;48.768;18.608;2024-02-15T11:24:51;10.40;99.90
11925;DHT22;6022;48.768;18.608;2024-02-15T11:27:29;10.40;99.90
11925;DHT22;6022;48.768;18.608;2024-02-15T11:30:00;10.40;99.90
11925;DHT22;6022;48.768;18.608;2024-02-15T11:32:53;10.50;99.90
11925;DHT22;6022;48.768;18.608;2024-02-15T11:35:22;10.40;99.90
11925;DHT22;6022;48.768;18.608;2024-02-15T11:37:53;10.40;99.90
11925;DHT22;6022;48.768;18.608;2024-02-15T11:46:13;10.40;99.90
11925;DHT22;6022;48.768;18.608;2024-02-15T11:48:48;10.40;99.90
11925;DHT22;6022;48.768;18.608;2024-02-15T11:51:34;10.30;99.90
11925;DHT22;6022;48.768;18.608;2024-02-15T11:54:26;10.40;99.90
11925;DHT22;6022;48.768;18.608;2024-02-15T11:56:59;10.40;99.90
11925;DHT22;6022;48.768;18.608;2024-02-15T11:59:42;10.40;99.90
11925;DHT22;6022;48.768;18.608;2024-02-15T12:02:21;10.40;99.90
11925;DHT22;6022;48.768;18.608;2024-02-15T12:05:08;10.60;99.90
11925;DHT22;6022;48.768;18.608;2024-02-15T12:07:55;10.70;99.90
11925;DHT22;6022;48.768;18.608;2024-02-15T12:10:43;10.70;99.90
11925;DHT22;6022;48.768;18.608;2024-02-15T12:13:29;10.70;99.90
11925;DHT22;6022;48.768;18.608;2024-02-15T12:16:17;10.90;99.90
11925;DHT22;6022;48.768;18.608;2024-02-15T12:19:04;10.60;99.90
11925;DHT22;6022;48.768;18.608;2024-02-15T12:21:32;10.70;99.90
11925;DHT22;6022;48.768;18.608;2024-02-15T12:24:01;11.10;99.90
11925;DHT22;6022;48.768;18.608;2024-02-15T12:26:31;10.70;99.90
11925;DHT22;6022;48.768;18.608;2024-02-15T12:29:02;10.70;99.90
11925;DHT22;6022;48.768;18.608;2024-02-15T12:31:30;10.70;99.90
11925;DHT22;6022;48.768;18.608;2024-02-15T12:34:06;10.70;99.90
11925;DHT22;6022;48.768;18.608;2024-02-15T12:36:36;10.70;99.90
11925;DHT22;6022;48.768;18.608;2024-02-15T12:39:06;11.00;99.90
11925;DHT22;6022;48.768;18.608;2024-02-15T12:41:39;10.90;99.90
11925;DHT22;6022;48.768;18.608;2024-02-15T12:44:16;10.80;99.90
11925;DHT22;6022;48.768;18.608;2024-02-15T12:46:57;10.80;99.90
11925;DHT22;6022;48.768;18.608;2024-02-15T12:49:47;10.70;99.90
11925;DHT22;6022;48.768;18.608;2024-02-15T12:52:48;10.90;99.90
11925;DHT22;6022;48.768;18.608;2024-02-15T12:57:50;10.80;99.90
11925;DHT22;6022;48.768;18.608;2024-02-15T13:00:25;10.60;99.90
11925;DHT22;6022;48.768;18.608;2024-02-15T13:03:01;10.80;99.90
11925;DHT22;6022;48.768;18.608;2024-02-15T13:05:37;10.70;99.90
11925;DHT22;6022;48.768;18.608;2024-02-15T13:08:06;10.70;99.90
11925;DHT22;6022;48.768;18.608;2024-02-15T13:10:42;10.70;99.90
11925;DHT22;6022;48.768;18.608;2024-02-15T13:13:11;10.60;99.90
11925;DHT22;6022;48.768;18.608;2024-02-15T13:15:52;10.60;99.90
11925;DHT22;6022;48.768;18.608;2024-02-15T13:18:22;11.00;99.90
11925;DHT22;6022;48.768;18.608;2024-02-15T13:21:00;10.80;99.90
11925;DHT22;6022;48.768;18.608;2024-02-15T13:23:31;10.90;99.90
11925;DHT22;6022;48.768;18.608;2024-02-15T13:25:59;10.70;99.90
11925;DHT22;6022;48.768;18.608;2024-02-15T13:28:31;10.90;99.90
11925;DHT22;6022;48.768;18.608;2024-02-15T13:31:00;11.10;99.90
11925;DHT22;6022;48.768;18.608;2024-02-15T13:33:29;11.10;99.90
11925;DHT22;6022;48.768;18.608;2024-02-15T13:36:00;10.80;99.90
11925;DHT22;6022;48.768;18.608;2024-02-15T13:38:29;11.10;99.90
11925;DHT22;6022;48.768;18.608;2024-02-15T13:40:57;10.80;99.90
11925;DHT22;6022;48.768;18.608;2024-02-15T13:43:30;10.70;99.90
11925;DHT22;6022;48.768;18.608;2024-02-15T13:46:00;10.70;99.90
11925;DHT22;6022;48.768;18.608;2024-02-15T13:48:30;10.80;99.90
11925;DHT22;6022;48.768;18.608;2024-02-15T13:50:58;10.70;99.90
11925;DHT22;6022;48.768;18.608;2024-02-15T13:53:27;10.70;99.90
11925;DHT22;6022;48.768;18.608;2024-02-15T13:55:57;10.70;99.90
11925;DHT22;6022;48.768;18.608;2024-02-15T13:58:26;10.70;99.90
11925;DHT22;6022;48.768;18.608;2024-02-15T14:00:54;10.70;99.90
11925;DHT22;6022;48.768;18.608;2024-02-15T14:03:25;10.80;99.90
11925;DHT22;6022;48.768;18.608;2024-02-15T14:05:55;10.40;99.90
11925;DHT22;6022;48.768;18.608;2024-02-15T14:08:24;10.60;99.90
11925;DHT22;6022;48.768;18.608;2024-02-15T14:10:53;10.70;99.90
11925;DHT22;6022;48.768;18.608;2024-02-15T14:13:23;10.50;99.90
11925;DHT22;6022;48.768;18.608;2024-02-15T14:15:52;10.60;99.90
11925;DHT22;6022;48.768;18.608;2024-02-15T14:18:21;10.70;99.90
11925;DHT22;6022;48.768;18.608;2024-02-15T14:20:51;10.70;99.90
11925;DHT22;6022;48.768;18.608;2024-02-15T14:23:20;10.80;99.90
11925;DHT22;6022;48.768;18.608;2024-02-15T14:25:48;10.70;99.90
11925;DHT22;6022;48.768;18.608;2024-02-15T14:28:18;10.70;99.90
11925;DHT22;6022;48.768;18.608;2024-02-15T14:30:46;10.80;99.90
11925;DHT22;6022;48.768;18.608;2024-02-15T14:33:32;10.80;99.90
11925;DHT22;6022;48.768;18.608;2024-02-15T14:36:02;11.00;99.90
11925;DHT22;6022;48.768;18.608;2024-02-15T14:38:33;10.70;99.90
11925;DHT22;6022;48.768;18.608;2024-02-15T14:41:02;10.60;99.90
11925;DHT22;6022;48.768;18.608;2024-02-15T14:43:35;10.50;99.90
11925;DHT22;6022;48.768;18.608;2024-02-15T14:46:03;10.40;99.90
11925;DHT22;6022;48.768;18.608;2024-02-15T14:48:37;10.60;99.90
11925;DHT22;6022;48.768;18.608;2024-02-15T14:51:15;10.60;99.90
11925;DHT22;6022;48.768;18.608;2024-02-15T14:53:48;10.50;99.90
11925;DHT22;6022;48.768;18.608;2024-02-15T14:56:17;10.50;99.90
11925;DHT22;6022;48.768;18.608;2024-02-15T14:58:46;10.50;99.90
11925;DHT22;6022;48.768;18.608;2024-02-15T15:01:20;10.50;99.90
11925;DHT22;6022;48.768;18.608;2024-02-15T15:03:55;10.40;99.90
11925;DHT22;6022;48.768;18.608;2024-02-15T15:06:26;10.20;99.90
11925;DHT22;6022;48.768;18.608;2024-02-15T15:09:13;10.40;99.90
11925;DHT22;6022;48.768;18.608;2024-02-15T15:12:02;10.40;99.90
11925;DHT22;6022;48.768;18.608;2024-02-15T15:14:50;10.40;99.90
11925;DHT22;6022;48.768;18.608;2024-02-15T15:17:19;10.30;99.90
11925;DHT22;6022;48.768;18.608;2024-02-15T15:19:48;10.00;99.90
11925;DHT22;6022;48.768;18.608;2024-02-15T15:22:16;10.30;99.90
11925;DHT22;6022;48.768;18.608;2024-02-15T15:24:51;10.30;99.90
11925;DHT22;6022;48.768;18.608;2024-02-15T15:27:19;10.30;99.90
11925;DHT22;6022;48.768;18.608;2024-02-15T15:29:49;10.30;99.90
11925;DHT22;6022;48.768;18.608;2024-02-15T15:32:19;10.20;99.90
11925;DHT22;6022;48.768;18.608;2024-02-15T15:34:48;10.20;99.90
11925;DHT22;6022;48.768;18.608;2024-02-15T15:37:18;10.20;99.90
11925;DHT22;6022;48.768;18.608;2024-02-15T15:39:50;10.10;99.90
11925;DHT22;6022;48.768;18.608;2024-02-15T15:42:19;10.00;99.90
11925;DHT22;6022;48.768;18.608;2024-02-15T15:44:46;10.10;99.90
11925;DHT22;6022;48.768;18.608;2024-02-15T15:47:15;10.10;99.90
11925;DHT22;6022;48.768;18.608;2024-02-15T15:49:44;9.90;99.90
11925;DHT22;6022;48.768;18.608;2024-02-15T15:52:13;10.00;99.90
11925;DHT22;6022;48.768;18.608;2024-02-15T15:54:41;10.00;99.90
11925;DHT22;6022;48.768;18.608;2024-02-15T15:57:11;9.90;99.90
11925;DHT22;6022;48.768;18.608;2024-02-15T15:59:42;9.90;99.90
11925;DHT22;6022;48.768;18.608;2024-02-15T16:02:13;9.80;99.90
11925;DHT22;6022;48.768;18.608;2024-02-15T16:04:45;9.90;99.90
11925;DHT22;6022;48.768;18.608;2024-02-15T16:07:20;9.80;99.90
11925;DHT22;6022;48.768;18.608;2024-02-15T16:09:48;10.10;99.90
11925;DHT22;6022;48.768;18.608;2024-02-15T16:12:16;10.00;99.90
11925;DHT22;6022;48.768;18.608;2024-02-15T16:14:49;9.60;99.90
11925;DHT22;6022;48.768;18.608;2024-02-15T16:17:17;9.80;99.90
11925;DHT22;6022;48.768;18.608;2024-02-15T16:19:47;9.90;99.90
11925;DHT22;6022;48.768;18.608;2024-02-15T16:22:15;9.70;99.90